KBCE

Bryce Canyon Airport

Bryce Canyon, Utah, USA
KBCE 260520Z 2606/2706 29007KT P6SM SKC FM261500 01009KT P6SM SKC FM261900 10008KT P6SM SKC FM270300 28006KT P6SM SKC
Issued Valid From Valid To
Apr-26 @ 05:20 UTC
(35 minutes ago)
Apr-26 @ 06:00 UTC
(in 5 minutes)
Apr-27 @ 06:00 UTC
(in 24 hours)
Apr-26 @ 06:00 to Apr-26 @ 15:00
KBCE 260520Z 2606/2706 29007KT P6SM SKC
Wind Visibility Clouds
290° at 7 knots Greater than 6 miles
  • Clear skies
From Apr-26 @ 15:00 to Apr-26 @ 19:00
FM261500 01009KT P6SM SKC
Wind Visibility Clouds
10° at 9 knots Greater than 6 miles
  • Clear skies
From Apr-26 @ 19:00 to Apr-27 @ 03:00
FM261900 10008KT P6SM SKC
Wind Visibility Clouds
100° at 8 knots Greater than 6 miles
  • Clear skies
From Apr-27 @ 03:00 to Apr-27 @ 06:00
FM270300 28006KT P6SM SKC
Wind Visibility Clouds
280° at 6 knots Greater than 6 miles
  • Clear skies
KBCE 260520Z 2606/2706 29007KT P6SM SKC FM261500 01009KT P6SM SKC FM261900 10008KT P6SM SKC FM270300 28006KT P6SM SKC
Issued Apr-26 @ 05:20 UTC
(35 minutes ago)
Valid From Apr-26 @ 06:00 UTC
(in 5 minutes)
Valid To Apr-27 @ 06:00 UTC
(in 24 hours)
Apr-26 @ 06:00 - Apr-26 @ 15:00
Wind Visibility
290° at 7 knots Greater than 6 miles
Clouds
  • Clear skies
From Apr-26 @ 15:00 - Apr-26 @ 19:00
Wind Visibility
10° at 9 knots Greater than 6 miles
Clouds
  • Clear skies
From Apr-26 @ 19:00 - Apr-27 @ 03:00
Wind Visibility
100° at 8 knots Greater than 6 miles
Clouds
  • Clear skies
From Apr-27 @ 03:00 - Apr-27 @ 06:00
Wind Visibility
280° at 6 knots Greater than 6 miles
Clouds
  • Clear skies